Terminal Aerodrome Forecast
Issued by NWS

Home | Current Version | Previous Version | Text Only | Print | Product List | Glossary Off
Versions: 1 2 3 4 5 6 7 8 9 10 11 12 13 14 15 16 17 18 19 20

000
FTUS43 KTOP 301133
TAFFOE
TAF
KFOE 301133Z 3012/0112 26005KT P6SM SCT090
     FM301500 24008KT P6SM SCT250
     FM302000 17009KT P6SM SCT080
     FM010200 15007KT P6SM BKN080=

USA.gov is the U.S. government's official web portal to all federal, state and local government web resources and services.